Portada
METAR-TAF:

METAR-TAF

Aeroports :

Burgas, Bulgària

latitud: 42-29N, longitud: 027-29E, altitud: 16 m

Observació

L'informe es va fer fa 16 minuts, a les 22:30 UTC
Vent 5 kt del Nord/Nord-Est
Temperatura 5°C
Humitat 75%
Pressió 1025 hPa
Visibilitat 10 km o més
Cel cobert a una alçada de 3100 ft

METAR: LBBG 182230Z 03005KT 9999 OVC031 05/01 Q1025 NOSIG

Hora: 00:46 (22:46 UTC)

Pronòstic

L'informe es va fer fa 5 hores i 46 minuts, a les 17:00 UTC
Pronòstic vàlid del 18 a les 18 UTC al 19 a les 18 UTC
Vent 10 kt del Nord/Nord-Est
Visibilitat 10 km o més
Cel cobert a una alçada de 3000 ft

TAF: LBBG 181700Z 1818/1918 02010KT 9999 OVC030

Observacions i pronòstics meteorològics de més de 4000 aeroports (METAR i TAF).

Les estacions disponibles són els punts grocs i vermells al mapa.

Posi el ratolí al punt desitjat per veure el nom de l'estació.

Feu clic per veure les observacions i els pronòstics meteorològics.

Per canviar el mapa: feu clic els botons verds amb una creu de color negre per apropar; al botó verd amb un guió per allunyar la imatge; o en les fletxes verdes per a mapes adjacents.


METAR-TAF: